Accueil
METAR-TAF:

METAR-TAF

Aéroports :

Norwich, Angleterre

Aéroport international de Norwich

latitude: 52-38N, longitude: 001-18E, altitude: 14 m

Observation

Le bulletin a été fait il y a 27 minutes, à 10:20 UTC
Vent 10 kt de sud-ouest, variant entre sud et ouest
Température 15°C
Humidité 82%
Pression 993 hPa
Visibilité 10 km ou plus
Nuages épars à une hauteur de 900 ft
Nuages fragmentés à une hauteur de 1500 ft

METAR: EGSH 291020Z 22010KT 180V270 9999 SCT009 BKN015 15/12 Q0993 NOSIG

Heure: 11:47 (10:47 UTC)

Prévision

Le bulletin a été fait il y a 2 heures et 45 minutes, à 08:02 UTC
Prévision valable du 29 à 09 UTC au 29 à 18 UTC
Vent 12 kt de sud-ouest
Visibilité: 8000 m
Nuages fragmentés à une hauteur de 500 ft
Evoluant progressivement
du 29 à 09 UTC au 29 à 12 UTC
Visibilité 10 km ou plus
Nuages épars à une hauteur de 2400 ft

TAF: EGSH 290802Z 2909/2918 23012KT 8000 BKN005 BECMG 2909/2912 9999 SCT024

Observations et prévisions météorologiques de plus de 4000 aéroports (messages METAR et TAF).

Les stations disponibles sont représentées par des disques jaunes et rouges sur la carte.

Passer la souris dessus pour voir le nom de la station.

Cliquer dessus pour voir les observations et prévisions météorologiques.

Pour changer de carte: cliquez sur les boutons verts avec une croix noire pour zoomer, sur le bouton vert avec un tiret pour effectuer un zoom arrière, ou sur les flèches vertes pour les cartes adjacentes.


METAR-TAF: